createdAt,value
2022-10-13T00:00:42.614Z,100.00
2022-10-13T00:03:09.681Z,100.00
2022-10-13T00:05:40.802Z,100.00
2022-10-13T00:08:07.686Z,100.00
2022-10-13T00:10:36.808Z,100.00
2022-10-13T00:13:04.102Z,100.00
2022-10-13T00:15:30.966Z,100.00
2022-10-13T00:17:57.753Z,100.00
2022-10-13T00:20:24.623Z,100.00
2022-10-13T00:22:51.484Z,100.00
2022-10-13T00:25:18.343Z,100.00
2022-10-13T00:27:45.183Z,100.00
2022-10-13T00:30:12.086Z,100.00
2022-10-13T00:32:39.042Z,100.00
2022-10-13T00:35:06.022Z,100.00
2022-10-13T00:37:32.910Z,100.00
2022-10-13T00:39:59.842Z,100.00
2022-10-13T00:42:27.304Z,100.00
2022-10-13T00:45:12.583Z,100.00
2022-10-13T00:47:41.684Z,100.00
2022-10-13T00:50:11.302Z,100.00
2022-10-13T00:52:39.463Z,100.00
2022-10-13T00:55:07.042Z,100.00
2022-10-13T00:57:33.923Z,100.00
2022-10-13T01:00:00.804Z,100.00
2022-10-13T01:02:32.788Z,100.00
2022-10-13T01:04:59.644Z,100.00
2022-10-13T01:07:26.684Z,100.00
2022-10-13T01:09:53.522Z,100.00
2022-10-13T01:12:47.086Z,100.00
2022-10-13T01:15:26.223Z,100.00
2022-10-13T01:17:59.664Z,100.00
2022-10-13T01:20:38.642Z,100.00
2022-10-13T01:23:21.742Z,100.00
2022-10-13T01:26:25.862Z,100.00
2022-10-13T01:29:10.145Z,100.00
2022-10-13T01:31:42.727Z,100.00
2022-10-13T01:34:47.704Z,100.00
2022-10-13T01:37:29.365Z,100.00
2022-10-13T01:40:14.622Z,100.00
2022-10-13T01:42:47.261Z,100.00
2022-10-13T01:45:14.323Z,100.00
2022-10-13T01:47:41.246Z,100.00
2022-10-13T01:50:08.341Z,100.00
2022-10-13T01:52:37.284Z,100.00
2022-10-13T01:55:12.282Z,100.00
2022-10-13T01:57:41.827Z,100.00
2022-10-13T02:00:10.041Z,100.00
2022-10-13T02:02:58.563Z,100.00
2022-10-13T02:05:40.005Z,100.00
2022-10-13T02:08:33.182Z,100.00
2022-10-13T02:11:19.742Z,100.00
2022-10-13T02:14:16.982Z,100.00
2022-10-13T02:16:44.565Z,100.00
2022-10-13T02:19:13.382Z,100.00
2022-10-13T02:21:41.184Z,100.00
2022-10-13T02:24:08.580Z,100.00
2022-10-13T02:26:36.662Z,100.00
2022-10-13T02:29:10.773Z,100.00
2022-10-13T02:31:37.683Z,100.00
2022-10-13T02:34:05.044Z,100.00
2022-10-13T02:36:31.945Z,100.00
2022-10-13T02:38:59.105Z,100.00
2022-10-13T02:41:26.004Z,100.00
2022-10-13T02:43:52.822Z,100.00
2022-10-13T02:46:19.722Z,100.00
2022-10-13T02:48:46.564Z,100.00
2022-10-13T02:51:13.404Z,100.00
2022-10-13T02:53:40.221Z,100.00
2022-10-13T02:56:07.909Z,100.00
2022-10-13T02:58:35.421Z,100.00
2022-10-13T03:01:12.529Z,100.00
2022-10-13T03:03:39.702Z,100.00
2022-10-13T03:06:07.043Z,100.00
2022-10-13T03:08:34.306Z,100.00
2022-10-13T03:11:01.201Z,100.00
2022-10-13T03:13:28.022Z,100.00
2022-10-13T03:15:54.883Z,100.00
2022-10-13T03:18:21.688Z,100.00
2022-10-13T03:21:02.280Z,100.00
2022-10-13T03:23:29.142Z,100.00
2022-10-13T03:25:56.100Z,100.00
2022-10-13T03:28:23.114Z,100.00
2022-10-13T03:30:50.024Z,100.00
2022-10-13T03:33:17.003Z,100.00
2022-10-13T03:35:43.920Z,100.00
2022-10-13T03:38:10.762Z,100.00
2022-10-13T03:40:37.622Z,100.00
2022-10-13T03:43:04.381Z,100.00
2022-10-13T03:45:31.558Z,100.00
2022-10-13T03:47:58.625Z,100.00
2022-10-13T03:50:25.564Z,100.00
2022-10-13T03:52:52.385Z,100.00
2022-10-13T03:55:19.262Z,100.00
2022-10-13T03:57:46.103Z,100.00
2022-10-13T04:00:13.721Z,100.00
2022-10-13T04:02:40.644Z,100.00
2022-10-13T04:05:07.702Z,100.00
2022-10-13T04:07:34.923Z,100.00
2022-10-13T04:10:01.741Z,100.00
2022-10-13T04:12:28.563Z,100.00
2022-10-13T04:14:55.347Z,100.00
2022-10-13T04:17:22.121Z,100.00
2022-10-13T04:19:48.941Z,100.00
2022-10-13T04:22:15.761Z,100.00
2022-10-13T04:24:42.607Z,100.00
2022-10-13T04:27:10.204Z,100.00
2022-10-13T04:29:37.061Z,100.00
2022-10-13T04:32:04.003Z,100.00
2022-10-13T04:34:30.802Z,100.00
2022-10-13T04:36:57.702Z,100.00
2022-10-13T04:39:24.523Z,100.00
2022-10-13T04:41:51.344Z,100.00
2022-10-13T04:44:18.134Z,100.00
2022-10-13T04:46:44.984Z,100.00
2022-10-13T04:49:11.828Z,100.00
2022-10-13T04:51:38.664Z,100.00
2022-10-13T04:54:05.803Z,100.00
2022-10-13T04:56:32.702Z,100.00
2022-10-13T04:59:00.137Z,100.00
2022-10-13T05:01:27.088Z,100.00
2022-10-13T05:03:55.152Z,100.00
2022-10-13T05:06:33.201Z,100.00
2022-10-13T05:09:00.082Z,100.00
2022-10-13T05:11:27.361Z,100.00
2022-10-13T05:13:54.320Z,100.00
2022-10-13T05:16:21.301Z,100.00
2022-10-13T05:18:48.986Z,100.00
2022-10-13T05:21:17.742Z,100.00
2022-10-13T05:23:45.642Z,100.00
2022-10-13T05:26:14.224Z,100.00
2022-10-13T05:28:41.326Z,100.00
2022-10-13T05:31:18.943Z,100.00
2022-10-13T05:33:45.963Z,100.00
2022-10-13T05:36:20.245Z,100.00
2022-10-13T05:38:53.703Z,100.00
2022-10-13T05:41:20.823Z,100.00
2022-10-13T05:43:47.746Z,100.00
2022-10-13T05:46:14.804Z,100.00
2022-10-13T05:48:41.642Z,100.00
2022-10-13T05:51:16.147Z,100.00
2022-10-13T05:53:50.297Z,100.00
2022-10-13T05:56:22.304Z,100.00
2022-10-13T05:58:51.710Z,100.00
2022-10-13T06:01:20.380Z,100.00
2022-10-13T06:03:47.263Z,100.00
2022-10-13T06:06:14.125Z,100.00
2022-10-13T06:08:42.743Z,100.00
2022-10-13T06:11:09.902Z,100.00
2022-10-13T06:13:36.727Z,100.00
2022-10-13T06:16:04.064Z,100.00
2022-10-13T06:18:30.949Z,100.00
2022-10-13T06:20:57.769Z,100.00
2022-10-13T06:23:24.700Z,100.00
2022-10-13T06:25:52.481Z,100.00
2022-10-13T06:28:19.554Z,100.00
2022-10-13T06:30:49.583Z,100.00
2022-10-13T06:33:16.443Z,100.00
2022-10-13T06:35:43.245Z,100.00
2022-10-13T06:38:10.084Z,100.00
2022-10-13T06:40:36.962Z,100.00
2022-10-13T06:43:03.926Z,100.00
2022-10-13T06:45:30.862Z,100.00
2022-10-13T06:47:57.724Z,100.00
2022-10-13T06:50:24.702Z,100.00
2022-10-13T06:52:51.645Z,100.00
2022-10-13T06:55:18.644Z,99.41
2022-10-13T06:57:45.461Z,98.06
2022-10-13T07:00:12.604Z,97.36
2022-10-13T07:02:39.728Z,95.50
2022-10-13T07:05:06.928Z,94.15
2022-10-13T07:07:33.845Z,92.66
2022-10-13T07:10:00.834Z,92.45
2022-10-13T07:12:27.713Z,89.96
2022-10-13T07:14:54.735Z,88.68
2022-10-13T07:17:22.050Z,87.79
2022-10-13T07:19:49.397Z,85.80
2022-10-13T07:22:16.476Z,84.41
2022-10-13T07:24:43.628Z,83.22
2022-10-13T07:27:10.564Z,82.69
2022-10-13T07:29:37.633Z,80.40
2022-10-13T07:32:04.766Z,80.48
2022-10-13T07:34:31.778Z,78.89
2022-10-13T07:36:58.716Z,77.13
2022-10-13T07:39:25.695Z,77.08
2022-10-13T07:41:52.730Z,75.10
2022-10-13T07:44:19.834Z,73.77
2022-10-13T07:46:46.899Z,73.62
2022-10-13T07:49:16.182Z,73.48
2022-10-13T07:51:44.524Z,70.83
2022-10-13T07:54:11.553Z,69.87
2022-10-13T07:56:38.614Z,69.44
2022-10-13T07:59:05.576Z,67.59
2022-10-13T08:01:32.523Z,66.66
2022-10-13T08:03:59.507Z,64.08
2022-10-13T08:06:26.525Z,65.93
2022-10-13T08:08:53.589Z,65.05
2022-10-13T08:11:20.538Z,65.12
2022-10-13T08:13:51.003Z,63.56
2022-10-13T08:16:18.062Z,63.99
2022-10-13T08:18:45.525Z,64.06
2022-10-13T08:24:01.451Z,63.13
2022-10-13T08:26:28.413Z,61.43
2022-10-13T08:29:16.494Z,58.73
2022-10-13T08:31:42.887Z,55.09
2022-10-13T08:34:10.578Z,55.60
2022-10-13T08:36:38.137Z,54.38
2022-10-13T08:39:05.044Z,53.85
2022-10-13T08:41:33.653Z,54.88
2022-10-13T08:45:10.845Z,55.36
2022-10-13T08:47:03.428Z,53.76
2022-10-13T08:49:30.448Z,55.60
2022-10-13T08:51:58.996Z,52.09
2022-10-13T08:54:25.954Z,54.77
2022-10-13T08:56:53.108Z,54.04
2022-10-13T08:59:21.871Z,55.41
2022-10-13T09:01:51.945Z,51.97
2022-10-13T09:04:29.573Z,52.81
2022-10-13T09:07:04.069Z,51.03
2022-10-13T09:09:31.033Z,48.05
2022-10-13T09:11:58.276Z,49.17
2022-10-13T09:14:27.493Z,49.01
2022-10-13T09:16:55.156Z,50.66
2022-10-13T09:19:30.293Z,50.94
2022-10-13T09:22:28.212Z,47.34
2022-10-13T09:25:07.065Z,46.75
2022-10-13T09:27:49.174Z,46.65
2022-10-13T09:30:41.472Z,47.39
2022-10-13T09:33:14.251Z,46.71
2022-10-13T09:35:49.918Z,45.50
2022-10-13T09:38:19.993Z,46.09
2022-10-13T09:41:00.294Z,46.62
2022-10-13T09:43:29.868Z,46.75
2022-10-13T09:45:57.454Z,46.17
2022-10-13T09:48:27.751Z,44.35
2022-10-13T09:50:56.253Z,44.60
2022-10-13T09:53:40.135Z,43.22
2022-10-13T09:56:09.278Z,42.42
2022-10-13T09:59:02.512Z,43.83
2022-10-13T10:01:33.054Z,41.06
2022-10-13T10:04:00.266Z,38.94
2022-10-13T10:06:28.025Z,40.03
2022-10-13T10:09:04.897Z,40.46
2022-10-13T10:11:42.945Z,39.28
2022-10-13T10:14:34.620Z,42.17
2022-10-13T10:17:19.087Z,41.31
2022-10-13T10:20:10.954Z,45.93
2022-10-13T10:22:47.584Z,41.58
2022-10-13T10:25:14.427Z,42.95
2022-10-13T10:28:20.919Z,41.11
2022-10-13T10:31:25.130Z,39.40
2022-10-13T10:33:54.826Z,41.11
2022-10-13T10:36:38.575Z,39.94
2022-10-13T10:39:37.457Z,38.76
2022-10-13T10:42:30.781Z,39.19
2022-10-13T10:44:57.770Z,38.20
2022-10-13T10:47:29.871Z,35.78
2022-10-13T10:50:06.018Z,37.85
2022-10-13T10:53:13.260Z,39.22
2022-10-13T10:55:58.401Z,38.27
2022-10-13T10:58:45.706Z,40.97
2022-10-13T11:01:12.588Z,41.24
2022-10-13T11:03:39.427Z,39.55
2022-10-13T11:06:22.912Z,39.40
2022-10-13T11:08:49.868Z,39.05
2022-10-13T11:11:26.617Z,39.08
2022-10-13T11:14:07.178Z,40.15
2022-10-13T11:16:35.704Z,37.75
2022-10-13T11:19:08.864Z,40.19
2022-10-13T11:21:54.275Z,36.38
2022-10-13T11:24:42.585Z,36.67
2022-10-13T11:27:10.694Z,37.20
2022-10-13T11:29:57.310Z,35.34
2022-10-13T11:32:35.704Z,35.33
2022-10-13T11:35:05.511Z,38.69
2022-10-13T11:38:13.892Z,38.23
2022-10-13T11:41:14.786Z,35.80
2022-10-13T11:44:19.861Z,37.47
2022-10-13T11:47:08.423Z,37.13
2022-10-13T11:49:57.312Z,35.49
2022-10-13T11:52:40.571Z,34.38
2022-10-13T11:55:31.871Z,37.09
2022-10-13T11:58:16.187Z,37.43
2022-10-13T12:00:59.887Z,36.44
2022-10-13T12:03:34.606Z,36.51
2022-10-13T12:06:05.975Z,38.59
2022-10-13T12:08:36.307Z,35.63
2022-10-13T12:11:05.923Z,36.22
2022-10-13T12:13:33.286Z,37.07
2022-10-13T12:16:06.704Z,34.84
2022-10-13T12:18:36.108Z,37.41
2022-10-13T12:21:04.749Z,36.10
2022-10-13T12:23:32.468Z,35.88
2022-10-13T12:26:00.088Z,36.17
2022-10-13T12:28:29.281Z,35.89
2022-10-13T12:31:00.055Z,36.30
2022-10-13T12:33:31.907Z,33.73
2022-10-13T12:36:19.611Z,36.61
2022-10-13T12:38:49.385Z,36.91
2022-10-13T12:41:18.647Z,37.77
2022-10-13T12:43:45.823Z,38.81
2022-10-13T12:46:12.723Z,37.40
2022-10-13T12:48:40.429Z,36.33
2022-10-13T12:51:23.144Z,36.40
2022-10-13T12:53:50.082Z,37.94
2022-10-13T12:56:30.846Z,38.16
2022-10-13T12:58:57.765Z,41.04
2022-10-13T13:01:34.268Z,37.85
2022-10-13T13:04:22.901Z,38.82
2022-10-13T13:06:57.242Z,39.80
2022-10-13T13:09:31.071Z,39.23
2022-10-13T13:12:26.727Z,40.07
2022-10-13T13:14:55.343Z,42.50
2022-10-13T13:17:57.658Z,40.82
2022-10-13T13:20:34.795Z,43.19
2022-10-13T13:23:01.674Z,43.13
2022-10-13T13:25:28.613Z,45.20
2022-10-13T13:27:55.485Z,46.23
2022-10-13T13:30:23.432Z,47.39
2022-10-13T13:32:50.644Z,47.94
2022-10-13T13:35:17.673Z,50.74
2022-10-13T13:37:48.184Z,50.86
2022-10-13T13:40:19.846Z,52.47
2022-10-13T13:42:46.828Z,55.27
2022-10-13T13:45:14.508Z,58.25
2022-10-13T13:47:41.381Z,60.51
2022-10-13T13:50:35.078Z,63.55
2022-10-13T13:53:01.979Z,64.26
2022-10-13T13:55:29.882Z,65.74
2022-10-13T13:57:57.235Z,65.96
2022-10-13T14:00:24.697Z,69.34
2022-10-13T14:02:51.497Z,69.52
2022-10-13T14:05:18.441Z,72.16
2022-10-13T14:07:45.381Z,73.39
2022-10-13T14:10:12.262Z,74.10
2022-10-13T14:12:39.318Z,76.70
2022-10-13T14:15:06.701Z,77.94
2022-10-13T14:17:33.645Z,79.49
2022-10-13T14:20:00.649Z,80.45
2022-10-13T14:22:27.664Z,80.72
2022-10-13T14:24:54.679Z,81.38
2022-10-13T14:27:21.565Z,82.66
2022-10-13T14:29:48.602Z,83.36
2022-10-13T14:32:15.487Z,84.87
2022-10-13T14:34:42.382Z,86.04
2022-10-13T14:37:09.207Z,86.42
2022-10-13T14:39:36.060Z,87.41
2022-10-13T14:42:03.060Z,88.12
2022-10-13T14:44:29.923Z,88.89
2022-10-13T14:46:56.902Z,89.67
2022-10-13T14:49:23.717Z,90.16
2022-10-13T14:51:50.619Z,90.15
2022-10-13T14:54:17.497Z,90.22
2022-10-13T14:56:44.960Z,90.92
2022-10-13T14:59:12.345Z,91.54
2022-10-13T15:01:41.455Z,92.55
2022-10-13T15:04:08.500Z,92.73
2022-10-13T15:06:35.537Z,92.92
2022-10-13T15:09:02.440Z,94.05
2022-10-13T15:11:29.304Z,94.42
2022-10-13T15:13:56.661Z,94.30
2022-10-13T15:16:26.275Z,95.51
2022-10-13T15:18:53.115Z,95.48
2022-10-13T15:21:20.118Z,96.63
2022-10-13T15:23:47.103Z,96.80
2022-10-13T15:26:14.776Z,97.45
2022-10-13T15:28:46.038Z,98.13
2022-10-13T15:31:13.059Z,97.68
2022-10-13T15:33:45.580Z,98.12
2022-10-13T15:36:12.497Z,98.29
2022-10-13T15:38:39.417Z,98.94
2022-10-13T15:41:06.965Z,99.24
2022-10-13T15:43:34.421Z,99.71
2022-10-13T15:46:03.096Z,100.00
2022-10-13T15:48:30.091Z,100.00
2022-10-13T15:50:56.981Z,100.00
2022-10-13T15:53:23.915Z,100.00
2022-10-13T15:55:50.916Z,100.00
2022-10-13T15:58:17.836Z,100.00
2022-10-13T16:00:44.977Z,100.00
2022-10-13T16:03:14.477Z,100.00
2022-10-13T16:05:42.660Z,100.00
2022-10-13T16:08:09.538Z,100.00
2022-10-13T16:10:39.899Z,100.00
2022-10-13T16:13:07.080Z,100.00
2022-10-13T16:15:34.040Z,100.00
2022-10-13T16:18:00.878Z,100.00
2022-10-13T16:20:33.016Z,100.00
2022-10-13T16:22:59.899Z,100.00
2022-10-13T16:25:26.826Z,100.00
2022-10-13T16:27:53.635Z,100.00
2022-10-13T16:30:20.502Z,100.00
2022-10-13T16:32:47.380Z,100.00
2022-10-13T16:35:14.280Z,100.00
2022-10-13T16:37:41.259Z,100.00
2022-10-13T16:40:08.623Z,100.00
2022-10-13T16:42:35.500Z,100.00
2022-10-13T16:45:02.400Z,100.00
2022-10-13T16:47:29.258Z,100.00
2022-10-13T16:49:56.158Z,100.00
2022-10-13T16:52:23.040Z,100.00
2022-10-13T16:54:50.073Z,100.00
2022-10-13T16:57:16.877Z,100.00
2022-10-13T16:59:43.765Z,100.00
2022-10-13T17:02:15.841Z,100.00
2022-10-13T17:04:43.139Z,100.00
2022-10-13T17:07:10.040Z,100.00
2022-10-13T17:09:36.882Z,100.00
2022-10-13T17:12:04.484Z,100.00
2022-10-13T17:14:31.613Z,100.00
2022-10-13T17:16:58.465Z,100.00
2022-10-13T17:19:25.434Z,100.00
2022-10-13T17:21:52.266Z,100.00
2022-10-13T17:24:19.200Z,100.00
2022-10-13T17:26:46.093Z,100.00
2022-10-13T17:29:12.901Z,100.00
2022-10-13T17:31:39.716Z,100.00
2022-10-13T17:34:06.592Z,100.00
2022-10-13T17:36:34.546Z,100.00
2022-10-13T17:39:07.850Z,100.00
2022-10-13T17:41:34.816Z,100.00
2022-10-13T17:44:01.704Z,100.00
2022-10-13T17:46:38.956Z,100.00
2022-10-13T17:49:07.715Z,100.00
2022-10-13T17:51:34.535Z,100.00
2022-10-13T17:54:01.528Z,100.00
2022-10-13T17:56:28.618Z,100.00
2022-10-13T17:58:55.543Z,100.00
2022-10-13T18:01:27.566Z,100.00
2022-10-13T18:03:58.902Z,100.00
2022-10-13T18:06:27.559Z,100.00
2022-10-13T18:08:54.605Z,100.00
2022-10-13T18:11:22.282Z,100.00
2022-10-13T18:13:49.429Z,100.00
2022-10-13T18:16:18.285Z,100.00
2022-10-13T18:18:45.523Z,100.00
2022-10-13T18:21:14.059Z,100.00
2022-10-13T18:23:41.101Z,100.00
2022-10-13T18:26:15.020Z,100.00
2022-10-13T18:28:43.744Z,100.00
2022-10-13T18:31:12.302Z,100.00
2022-10-13T18:33:39.638Z,100.00
2022-10-13T18:36:24.061Z,100.00
2022-10-13T18:38:51.978Z,100.00
2022-10-13T18:41:19.102Z,100.00
2022-10-13T18:43:45.999Z,100.00
2022-10-13T18:46:12.863Z,100.00
2022-10-13T18:48:40.764Z,100.00
2022-10-13T18:51:12.346Z,100.00
2022-10-13T18:53:40.460Z,100.00
2022-10-13T18:56:09.063Z,100.00
2022-10-13T18:58:36.058Z,100.00
2022-10-13T19:01:04.285Z,100.00
2022-10-13T19:03:32.222Z,100.00
2022-10-13T19:05:59.085Z,100.00
2022-10-13T19:08:26.603Z,100.00
2022-10-13T19:10:53.520Z,100.00
2022-10-13T19:13:20.439Z,100.00
2022-10-13T19:15:47.322Z,100.00
2022-10-13T19:18:14.380Z,100.00
2022-10-13T19:20:41.344Z,100.00
2022-10-13T19:23:14.161Z,100.00
2022-10-13T19:25:44.240Z,100.00
2022-10-13T19:28:11.601Z,100.00
2022-10-13T19:30:38.904Z,100.00
2022-10-13T19:33:06.829Z,100.00
2022-10-13T19:35:42.595Z,100.00
2022-10-13T19:38:09.742Z,100.00
2022-10-13T19:40:41.503Z,100.00
2022-10-13T19:43:09.760Z,100.00
2022-10-13T19:45:36.892Z,100.00
2022-10-13T19:48:03.798Z,100.00
2022-10-13T19:50:33.398Z,100.00
2022-10-13T19:53:00.327Z,100.00
2022-10-13T19:55:27.128Z,100.00
2022-10-13T19:57:54.002Z,100.00
2022-10-13T20:00:20.800Z,100.00
2022-10-13T20:02:47.668Z,100.00
2022-10-13T20:05:14.585Z,100.00
2022-10-13T20:07:41.416Z,100.00
2022-10-13T20:10:08.483Z,100.00
2022-10-13T20:12:35.329Z,100.00
2022-10-13T20:15:02.215Z,100.00
2022-10-13T20:17:29.067Z,100.00
2022-10-13T20:19:55.964Z,100.00
2022-10-13T20:22:22.790Z,100.00
2022-10-13T20:24:49.948Z,100.00
2022-10-13T20:27:16.831Z,100.00
2022-10-13T20:29:43.641Z,100.00
2022-10-13T20:32:10.521Z,100.00
2022-10-13T20:34:37.430Z,100.00
2022-10-13T20:37:04.252Z,100.00
2022-10-13T20:39:31.146Z,100.00
2022-10-13T20:41:57.948Z,100.00
2022-10-13T20:44:24.809Z,100.00
2022-10-13T20:46:51.630Z,100.00
2022-10-13T20:49:18.512Z,100.00
2022-10-13T20:51:45.463Z,100.00
2022-10-13T20:54:13.061Z,100.00
2022-10-13T20:56:40.078Z,100.00
2022-10-13T20:59:08.446Z,100.00
2022-10-13T21:01:35.309Z,100.00
2022-10-13T21:04:02.121Z,100.00
2022-10-13T21:06:28.982Z,100.00
2022-10-13T21:08:55.848Z,100.00
2022-10-13T21:11:23.207Z,100.00
2022-10-13T21:13:50.208Z,100.00
2022-10-13T21:16:19.020Z,100.00
2022-10-13T21:18:48.221Z,100.00
2022-10-13T21:21:16.766Z,100.00
2022-10-13T21:23:43.837Z,100.00
2022-10-13T21:26:10.681Z,100.00
2022-10-13T21:28:38.241Z,100.00
2022-10-13T21:31:06.988Z,100.00
2022-10-13T21:33:35.727Z,100.00
2022-10-13T21:36:15.723Z,100.00
2022-10-13T21:38:44.576Z,100.00
2022-10-13T21:41:12.391Z,100.00
2022-10-13T21:43:39.188Z,100.00
2022-10-13T21:46:13.837Z,100.00
2022-10-13T21:48:40.783Z,100.00
2022-10-13T21:51:19.343Z,100.00
2022-10-13T21:53:53.578Z,100.00
2022-10-13T21:56:20.516Z,100.00
2022-10-13T21:58:49.023Z,100.00
2022-10-13T22:01:18.847Z,100.00
2022-10-13T22:03:47.208Z,100.00
2022-10-13T22:06:18.974Z,100.00
2022-10-13T22:08:47.922Z,100.00
2022-10-13T22:11:14.981Z,100.00
2022-10-13T22:13:41.767Z,100.00
2022-10-13T22:16:12.627Z,100.00
2022-10-13T22:18:39.429Z,100.00
2022-10-13T22:21:08.057Z,100.00
2022-10-13T22:23:34.875Z,100.00
2022-10-13T22:26:01.677Z,100.00
2022-10-13T22:28:31.258Z,100.00
2022-10-13T22:31:04.770Z,100.00
2022-10-13T22:33:31.941Z,100.00
2022-10-13T22:35:58.748Z,100.00
2022-10-13T22:38:25.579Z,100.00
2022-10-13T22:40:52.360Z,100.00
2022-10-13T22:43:19.262Z,100.00
2022-10-13T22:45:52.468Z,100.00
2022-10-13T22:48:19.306Z,100.00
2022-10-13T22:50:46.220Z,100.00
2022-10-13T22:53:12.996Z,100.00
2022-10-13T22:55:40.588Z,100.00
2022-10-13T22:58:07.640Z,100.00
2022-10-13T23:00:35.551Z,100.00
2022-10-13T23:03:02.719Z,100.00
2022-10-13T23:05:29.687Z,100.00
2022-10-13T23:07:56.496Z,100.00
2022-10-13T23:10:23.648Z,100.00
2022-10-13T23:12:50.447Z,100.00
2022-10-13T23:15:17.338Z,100.00
2022-10-13T23:17:44.215Z,100.00
2022-10-13T23:20:11.222Z,100.00
2022-10-13T23:22:37.998Z,100.00
2022-10-13T23:25:05.069Z,100.00
2022-10-13T23:27:31.868Z,100.00
2022-10-13T23:29:58.637Z,100.00
2022-10-13T23:32:25.491Z,100.00
2022-10-13T23:34:52.277Z,100.00
2022-10-13T23:37:19.546Z,100.00
2022-10-13T23:39:46.724Z,100.00
2022-10-13T23:42:13.548Z,100.00
2022-10-13T23:44:40.353Z,100.00
2022-10-13T23:47:07.173Z,100.00
2022-10-13T23:49:33.977Z,100.00
2022-10-13T23:52:00.737Z,100.00
2022-10-13T23:54:27.559Z,100.00
2022-10-13T23:56:54.395Z,100.00
2022-10-13T23:59:21.206Z,100.00
